createdAt,value
2018-04-09T00:01:57.050Z,38.17
2018-04-09T00:04:24.519Z,36.77
2018-04-09T00:06:51.973Z,38.90
2018-04-09T00:09:19.450Z,36.77
2018-04-09T00:11:46.918Z,39.20
2018-04-09T00:14:15.137Z,37.20
2018-04-09T00:16:42.613Z,37.30
2018-04-09T00:19:10.073Z,36.10
2018-04-09T00:21:37.530Z,38.10
2018-04-09T00:24:05.004Z,37.00
2018-04-09T00:26:32.470Z,35.90
2018-04-09T00:29:00.729Z,39.27
2018-04-09T00:31:28.202Z,36.40
2018-04-09T00:33:55.653Z,35.80
2018-04-09T00:36:23.119Z,35.67
2018-04-09T00:38:51.366Z,35.67
2018-04-09T00:41:18.830Z,39.50
2018-04-09T00:43:46.293Z,35.60
2018-04-09T00:46:13.768Z,36.40
2018-04-09T00:48:41.990Z,35.23
2018-04-09T00:51:09.455Z,36.03
2018-04-09T00:53:48.806Z,34.77
2018-04-09T00:56:17.039Z,33.77
2018-04-09T00:58:44.499Z,38.70
2018-04-09T01:01:11.974Z,36.57
2018-04-09T01:03:39.451Z,38.07
2018-04-09T01:06:06.914Z,35.40
2018-04-09T01:08:34.389Z,35.70
2018-04-09T01:11:02.613Z,36.97
2018-04-09T01:13:30.126Z,38.00
2018-04-09T01:15:57.575Z,38.47
2018-04-09T01:18:25.025Z,38.27
2018-04-09T01:20:53.998Z,37.40
2018-04-09T01:23:21.491Z,39.10
2018-04-09T01:25:49.718Z,39.77
2018-04-09T01:28:17.181Z,39.33
2018-04-09T01:30:44.659Z,41.10
2018-04-09T01:33:12.127Z,39.23
2018-04-09T01:35:39.606Z,40.17
2018-04-09T01:38:07.828Z,40.63
2018-04-09T01:40:35.287Z,43.07
2018-04-09T01:43:02.748Z,42.03
2018-04-09T01:45:30.221Z,40.40
2018-04-09T01:47:57.678Z,42.33
2018-04-09T01:50:25.150Z,43.67
2018-04-09T01:52:53.388Z,40.63
2018-04-09T01:55:20.849Z,41.53
2018-04-09T01:57:48.325Z,41.50
2018-04-09T02:00:15.791Z,43.30
2018-04-09T02:02:44.049Z,44.93
2018-04-09T02:05:11.478Z,45.20
2018-04-09T02:07:38.970Z,41.20
2018-04-09T02:10:06.425Z,40.80
2018-04-09T02:12:35.805Z,41.30
2018-04-09T02:15:03.277Z,41.40
2018-04-09T02:17:30.733Z,43.00
2018-04-09T02:19:58.200Z,43.03
2018-04-09T02:22:25.674Z,40.57
2018-04-09T02:24:53.905Z,39.10
2018-04-09T02:27:21.361Z,43.00
2018-04-09T02:29:48.838Z,41.87
2018-04-09T02:32:16.295Z,41.30
2018-04-09T02:34:43.758Z,44.93
2018-04-09T02:37:11.249Z,41.27
2018-04-09T02:39:39.458Z,40.87
2018-04-09T02:42:06.924Z,42.67
2018-04-09T02:44:34.395Z,40.27
2018-04-09T02:47:01.854Z,40.27
2018-04-09T02:49:29.366Z,37.97
2018-04-09T02:51:56.826Z,39.30
2018-04-09T02:54:24.311Z,39.63
2018-04-09T02:56:51.771Z,40.80
2018-04-09T02:59:19.245Z,41.13
2018-04-09T03:01:46.796Z,40.10
2018-04-09T03:04:14.257Z,41.37
2018-04-09T03:06:41.724Z,41.70
2018-04-09T03:09:09.186Z,40.13
2018-04-09T03:11:36.681Z,38.97
2018-04-09T03:14:04.145Z,38.90
2018-04-09T03:16:31.606Z,40.00
2018-04-09T03:18:59.069Z,41.60
2018-04-09T03:21:26.533Z,38.93
2018-04-09T03:23:54.002Z,41.50
2018-04-09T03:26:21.478Z,41.13
2018-04-09T03:28:48.936Z,40.47
2018-04-09T03:31:17.255Z,40.50
2018-04-09T03:33:44.716Z,39.07
2018-04-09T03:36:12.201Z,38.47
2018-04-09T03:38:39.657Z,40.20
2018-04-09T03:41:07.118Z,39.50
2018-04-09T03:43:34.598Z,40.70
2018-04-09T03:46:02.829Z,38.77
2018-04-09T03:48:30.274Z,37.93
2018-04-09T03:50:57.750Z,38.87
2018-04-09T03:53:25.215Z,38.70
2018-04-09T03:55:52.665Z,38.93
2018-04-09T03:58:20.144Z,39.93
2018-04-09T04:00:47.581Z,37.90
2018-04-09T04:03:15.038Z,37.53
2018-04-09T04:05:42.514Z,37.80
2018-04-09T04:08:09.973Z,38.00
2018-04-09T04:10:37.428Z,33.73
2018-04-09T04:13:04.980Z,38.00
2018-04-09T04:15:44.222Z,36.77
2018-04-09T04:18:30.205Z,35.80
2018-04-09T04:21:22.078Z,36.83
2018-04-09T04:23:49.554Z,39.10
2018-04-09T04:26:17.019Z,39.10
2018-04-09T04:28:44.465Z,38.53
2018-04-09T04:31:11.965Z,39.30
2018-04-09T04:33:39.385Z,38.97
2018-04-09T04:36:06.848Z,41.33
2018-04-09T04:38:34.318Z,42.20
2018-04-09T04:41:01.773Z,41.17
2018-04-09T04:43:29.229Z,44.97
2018-04-09T04:45:56.701Z,42.37
2018-04-09T04:48:24.162Z,42.70
2018-04-09T04:50:51.622Z,42.80
2018-04-09T04:53:19.094Z,44.77
2018-04-09T04:55:46.553Z,45.27
2018-04-09T04:58:15.660Z,42.93
2018-04-09T05:00:43.881Z,42.00
2018-04-09T05:03:11.369Z,42.17
2018-04-09T05:05:38.834Z,46.63
2018-04-09T05:08:07.068Z,45.80
2018-04-09T05:10:34.524Z,44.33
2018-04-09T05:13:01.987Z,41.87
2018-04-09T05:15:29.453Z,41.43
2018-04-09T05:17:56.918Z,42.30
2018-04-09T05:20:24.374Z,40.70
2018-04-09T05:22:51.855Z,44.70
2018-04-09T05:25:20.118Z,39.37
2018-04-09T05:27:48.362Z,39.80
2018-04-09T05:30:15.827Z,40.27
2018-04-09T05:32:43.285Z,40.37
2018-04-09T05:35:10.748Z,39.87
2018-04-09T05:37:38.211Z,39.77
2018-04-09T05:40:05.657Z,41.00
2018-04-09T05:42:33.135Z,41.13
2018-04-09T05:45:00.598Z,39.70
2018-04-09T05:47:28.816Z,39.70
2018-04-09T05:49:57.045Z,40.27
2018-04-09T05:52:25.270Z,37.47
2018-04-09T05:54:52.725Z,39.40
2018-04-09T05:57:20.204Z,40.70
2018-04-09T05:59:47.657Z,37.67
2018-04-09T06:02:15.111Z,36.60
2018-04-09T06:04:42.577Z,41.97
2018-04-09T06:07:10.038Z,37.93
2018-04-09T06:09:37.493Z,35.63
2018-04-09T06:12:04.970Z,37.50
2018-04-09T06:14:33.199Z,39.20
2018-04-09T06:17:00.661Z,41.63
2018-04-09T06:19:28.134Z,38.57
2018-04-09T06:21:55.605Z,40.77
2018-04-09T06:24:23.066Z,38.40
2018-04-09T06:26:50.535Z,38.00
2018-04-09T06:29:18.774Z,41.57
2018-04-09T06:31:46.221Z,42.60
2018-04-09T06:34:13.707Z,44.17
2018-04-09T06:36:42.669Z,40.53
2018-04-09T06:39:10.139Z,41.00
2018-04-09T06:41:37.607Z,40.47
2018-04-09T06:44:05.069Z,40.90
2018-04-09T06:46:32.529Z,43.07
2018-04-09T06:48:59.998Z,40.17
2018-04-09T06:51:28.221Z,40.27
2018-04-09T06:53:55.694Z,43.90
2018-04-09T06:56:23.167Z,42.23
2018-04-09T06:58:50.626Z,40.13
2018-04-09T07:01:18.086Z,35.27
2018-04-09T07:03:45.606Z,38.70
2018-04-09T07:06:13.034Z,41.77
2018-04-09T07:08:40.521Z,40.47
2018-04-09T07:11:07.996Z,37.97
2018-04-09T07:13:35.453Z,39.80
2018-04-09T07:16:02.915Z,39.00
2018-04-09T07:18:30.394Z,40.63
2018-04-09T07:20:58.622Z,37.13
2018-04-09T07:23:26.984Z,38.50
2018-04-09T07:25:54.498Z,43.03
2018-04-09T07:28:22.742Z,40.63
2018-04-09T07:30:50.210Z,41.60
2018-04-09T07:33:17.681Z,40.27
2018-04-09T07:35:45.143Z,43.80
2018-04-09T07:38:12.600Z,36.80
2018-04-09T07:40:40.862Z,41.00
2018-04-09T07:43:08.322Z,40.67
2018-04-09T07:45:35.781Z,38.50
2018-04-09T07:48:03.263Z,40.97
2018-04-09T07:50:31.497Z,37.03
2018-04-09T07:52:58.945Z,36.97
2018-04-09T07:55:26.422Z,36.10
2018-04-09T07:57:53.904Z,34.83
2018-04-09T08:00:22.126Z,36.47
2018-04-09T08:02:49.600Z,38.47
2018-04-09T08:05:17.062Z,36.77
2018-04-09T08:07:44.521Z,36.13
2018-04-09T08:10:11.995Z,35.33
2018-04-09T08:12:39.449Z,34.80
2018-04-09T08:15:06.906Z,36.50
2018-04-09T08:17:35.161Z,35.73
2018-04-09T08:20:02.620Z,35.70
2018-04-09T08:22:30.094Z,38.03
2018-04-09T08:24:57.558Z,36.77
2018-04-09T08:27:25.876Z,34.47
2018-04-09T08:29:53.321Z,37.00
2018-04-09T08:32:20.789Z,35.97
2018-04-09T08:34:48.257Z,34.03
2018-04-09T08:37:15.746Z,32.70
2018-04-09T08:39:43.213Z,34.77
2018-04-09T08:42:11.449Z,35.47
2018-04-09T08:44:38.920Z,35.23
2018-04-09T08:47:06.389Z,38.90
2018-04-09T08:49:33.846Z,33.03
2018-04-09T08:52:01.302Z,34.77
2018-04-09T08:54:28.768Z,37.63
2018-04-09T08:56:56.239Z,32.80
2018-04-09T08:59:24.468Z,35.37
2018-04-09T09:01:51.938Z,35.13
2018-04-09T09:04:19.425Z,34.60
2018-04-09T09:06:46.918Z,33.10
2018-04-09T09:09:14.384Z,32.80
2018-04-09T09:11:41.841Z,34.50
2018-04-09T09:14:09.314Z,30.63
2018-04-09T09:16:36.785Z,34.63
2018-04-09T09:19:04.252Z,33.50
2018-04-09T09:21:31.710Z,33.50
2018-04-09T09:23:59.181Z,33.80
2018-04-09T09:26:27.401Z,35.07
2018-04-09T09:28:54.894Z,35.73
2018-04-09T09:31:22.370Z,33.17
2018-04-09T09:33:50.601Z,34.90
2018-04-09T09:36:18.067Z,33.20
2018-04-09T09:38:45.563Z,33.00
2018-04-09T09:41:13.798Z,36.60
2018-04-09T09:43:41.306Z,36.40
2018-04-09T09:46:08.787Z,34.30
2018-04-09T09:48:36.247Z,31.43
2018-04-09T09:51:03.701Z,32.03
2018-04-09T09:53:31.169Z,32.03
2018-04-09T09:55:58.670Z,30.77
2018-04-09T09:58:26.131Z,34.60
2018-04-09T10:00:54.374Z,32.37
2018-04-09T10:03:28.205Z,29.93
2018-04-09T10:05:55.738Z,29.37
2018-04-09T10:08:23.217Z,31.37
2018-04-09T10:10:50.677Z,30.37
2018-04-09T10:13:18.944Z,30.00
2018-04-09T10:15:46.404Z,30.47
2018-04-09T10:18:13.878Z,28.67
2018-04-09T10:20:42.177Z,30.97
2018-04-09T10:23:09.639Z,29.50
2018-04-09T10:25:37.101Z,30.83
2018-04-09T10:28:04.590Z,31.50
2018-04-09T10:30:32.054Z,32.17
2018-04-09T10:32:59.526Z,30.53
2018-04-09T10:35:27.033Z,29.93
2018-04-09T10:37:54.992Z,28.90
2018-04-09T10:40:22.460Z,32.73
2018-04-09T10:42:49.939Z,36.23
2018-04-09T10:45:17.434Z,35.57
2018-04-09T10:47:45.672Z,35.07
2018-04-09T10:50:13.156Z,34.23
2018-04-09T10:52:40.616Z,33.50
2018-04-09T10:55:08.078Z,33.00
2018-04-09T10:57:36.329Z,33.57
2018-04-09T11:00:03.788Z,35.07
2018-04-09T11:02:31.241Z,35.23
2018-04-09T11:04:58.709Z,33.77
2018-04-09T11:07:26.178Z,40.90
2018-04-09T11:09:54.401Z,38.00
2018-04-09T11:12:21.884Z,35.83
2018-04-09T11:14:49.352Z,33.20
2018-04-09T11:17:16.870Z,31.70
2018-04-09T11:19:44.334Z,30.73
2018-04-09T11:22:11.822Z,32.03
2018-04-09T11:24:39.288Z,33.27
2018-04-09T11:27:06.758Z,30.00
2018-04-09T11:29:34.990Z,31.07
2018-04-09T11:32:03.214Z,31.90
2018-04-09T11:34:31.567Z,32.07
2018-04-09T11:36:59.040Z,31.43
2018-04-09T11:39:26.525Z,30.13
2018-04-09T11:41:53.996Z,30.60
2018-04-09T11:44:21.469Z,30.70
2018-04-09T11:46:48.929Z,29.03
2018-04-09T11:49:16.409Z,28.90
2018-04-09T11:51:43.871Z,29.37
2018-04-09T11:54:11.360Z,30.40
2018-04-09T11:56:38.841Z,26.93
2018-04-09T11:59:06.307Z,31.00
2018-04-09T12:01:33.765Z,29.53
2018-04-09T12:04:01.257Z,32.70
2018-04-09T12:06:28.720Z,35.43
2018-04-09T12:08:56.185Z,28.47
2018-04-09T12:11:24.419Z,27.33
2018-04-09T12:13:51.889Z,27.53
2018-04-09T12:16:19.356Z,29.13
2018-04-09T12:18:46.850Z,26.60
2018-04-09T12:21:14.318Z,28.37
2018-04-09T12:23:41.774Z,27.30
2018-04-09T12:26:09.263Z,28.07
2018-04-09T12:28:36.724Z,28.93
2018-04-09T12:31:04.183Z,27.17
2018-04-09T12:33:31.656Z,28.53
2018-04-09T12:35:59.116Z,29.27
2018-04-09T12:38:26.576Z,27.77
2018-04-09T12:40:54.365Z,29.23
2018-04-09T12:43:22.604Z,28.07
2018-04-09T12:45:50.060Z,27.87
2018-04-09T12:48:17.536Z,29.40
2018-04-09T12:50:45.764Z,30.80
2018-04-09T12:53:13.991Z,27.00
2018-04-09T12:55:42.235Z,26.50
2018-04-09T12:58:09.689Z,31.10
2018-04-09T13:00:37.147Z,35.93
2018-04-09T13:03:04.619Z,32.87
2018-04-09T13:05:32.865Z,39.80
2018-04-09T13:08:00.327Z,36.97
2018-04-09T13:10:27.846Z,34.50
2018-04-09T13:12:55.308Z,33.80
2018-04-09T13:15:22.771Z,30.97
2018-04-09T13:17:50.239Z,29.20
2018-04-09T13:20:17.708Z,27.20
2018-04-09T13:22:45.185Z,29.00
2018-04-09T13:25:12.642Z,31.70
2018-04-09T13:27:40.112Z,28.63
2018-04-09T13:30:08.339Z,29.27
2018-04-09T13:32:36.612Z,30.77
2018-04-09T13:35:04.143Z,31.20
2018-04-09T13:37:31.661Z,29.10
2018-04-09T13:39:59.154Z,26.43
2018-04-09T13:42:27.371Z,27.00
2018-04-09T13:44:54.835Z,28.93
2018-04-09T13:47:22.314Z,29.93
2018-04-09T13:49:49.772Z,31.10
2018-04-09T13:52:17.274Z,30.90
2018-04-09T13:54:44.748Z,28.13
2018-04-09T13:57:12.212Z,26.10
2018-04-09T13:59:39.672Z,25.30
2018-04-09T14:02:07.172Z,27.43
2018-04-09T14:04:35.396Z,27.13
2018-04-09T14:07:02.860Z,27.93
2018-04-09T14:09:30.345Z,26.17
2018-04-09T14:11:57.850Z,27.57
2018-04-09T14:14:25.306Z,25.73
2018-04-09T14:16:52.785Z,28.80
2018-04-09T14:19:20.247Z,28.37
2018-04-09T14:21:47.714Z,27.80
2018-04-09T14:24:15.195Z,25.10
2018-04-09T14:26:43.432Z,27.67
2018-04-09T14:29:10.926Z,25.80
2018-04-09T14:31:38.418Z,27.03
2018-04-09T14:34:06.326Z,26.30
2018-04-09T14:36:34.100Z,25.93
2018-04-09T14:39:02.411Z,25.80
2018-04-09T14:41:29.873Z,25.30
2018-04-09T14:43:57.348Z,26.50
2018-04-09T14:46:24.824Z,25.20
2018-04-09T14:48:52.275Z,25.40
2018-04-09T14:51:19.743Z,25.13
2018-04-09T14:53:47.240Z,26.50
2018-04-09T14:56:15.463Z,26.10
2018-04-09T14:58:42.994Z,26.00
2018-04-09T15:01:10.492Z,26.40
2018-04-09T15:03:37.947Z,27.20
2018-04-09T15:06:06.244Z,25.90
2018-04-09T15:08:33.730Z,27.37
2018-04-09T15:11:01.960Z,25.30
2018-04-09T15:13:29.428Z,29.00
2018-04-09T15:15:56.899Z,26.20
2018-04-09T15:18:24.365Z,27.63
2018-04-09T15:20:51.828Z,27.77
2018-04-09T15:23:20.063Z,27.70
2018-04-09T15:25:47.515Z,28.47
2018-04-09T15:28:14.983Z,27.03
2018-04-09T15:30:42.464Z,27.13
2018-04-09T15:33:10.693Z,26.67
2018-04-09T15:35:38.139Z,26.60
2018-04-09T15:38:05.619Z,26.00
2018-04-09T15:40:33.067Z,25.30
2018-04-09T15:43:00.536Z,26.87
2018-04-09T15:45:28.012Z,24.93
2018-04-09T15:47:55.463Z,24.57
2018-04-09T15:50:22.930Z,25.70
2018-04-09T15:52:50.452Z,24.80
2018-04-09T15:55:17.919Z,25.07
2018-04-09T15:57:45.380Z,25.37
2018-04-09T16:00:12.855Z,23.47
2018-04-09T16:02:40.334Z,26.83
2018-04-09T16:05:08.577Z,24.93
2018-04-09T16:07:39.980Z,24.73
2018-04-09T16:10:07.447Z,24.80
2018-04-09T16:12:35.783Z,25.50
2018-04-09T16:15:04.057Z,23.20
2018-04-09T16:17:32.309Z,23.50
2018-04-09T16:19:59.767Z,24.87
2018-04-09T16:22:27.247Z,24.80
2018-04-09T16:24:55.476Z,23.10
2018-04-09T16:27:22.956Z,22.93
2018-04-09T16:29:50.429Z,26.17
2018-04-09T16:32:17.888Z,24.20
2018-04-09T16:34:45.356Z,23.20
2018-04-09T16:37:13.595Z,22.67
2018-04-09T16:39:41.059Z,22.90
2018-04-09T16:42:08.542Z,22.10
2018-04-09T16:44:36.787Z,22.50
2018-04-09T16:47:04.269Z,20.77
2018-04-09T16:49:32.524Z,21.77
2018-04-09T16:52:00.039Z,22.93
2018-04-09T16:54:27.519Z,23.33
2018-04-09T16:56:54.999Z,24.33
2018-04-09T16:59:23.284Z,21.77
2018-04-09T17:01:50.771Z,21.73
2018-04-09T17:04:18.283Z,21.63
2018-04-09T17:06:45.802Z,23.90
2018-04-09T17:09:13.641Z,22.43
2018-04-09T17:11:42.773Z,24.37
2018-04-09T17:14:10.235Z,22.60
2018-04-09T17:16:37.703Z,22.93
2018-04-09T17:19:05.169Z,23.27
2018-04-09T17:21:32.641Z,22.70
2018-04-09T17:24:00.153Z,22.50
2018-04-09T17:26:27.635Z,21.70
2018-04-09T17:28:55.119Z,22.67
2018-04-09T17:31:22.571Z,21.70
2018-04-09T17:33:50.032Z,22.60
2018-04-09T17:36:17.520Z,21.80
2018-04-09T17:38:44.994Z,22.10
2018-04-09T17:41:12.452Z,23.83
2018-04-09T17:43:39.931Z,23.93
2018-04-09T17:46:07.391Z,21.37
2018-04-09T17:48:35.876Z,22.53
2018-04-09T17:51:03.344Z,24.23
2018-04-09T17:53:30.796Z,21.97
2018-04-09T17:55:59.076Z,24.30
2018-04-09T17:58:26.549Z,24.00
2018-04-09T18:00:54.816Z,23.00
2018-04-09T18:03:22.289Z,21.70
2018-04-09T18:05:50.544Z,24.50
2018-04-09T18:08:18.336Z,22.30
2018-04-09T18:10:46.570Z,24.90
2018-04-09T18:13:14.054Z,22.60
2018-04-09T18:15:41.574Z,24.20
2018-04-09T18:18:09.011Z,22.87
2018-04-09T18:20:36.544Z,24.97
2018-04-09T18:23:04.008Z,21.60
2018-04-09T18:25:31.464Z,23.90
2018-04-09T18:27:58.970Z,24.13
2018-04-09T18:30:27.191Z,22.43
2018-04-09T18:32:54.691Z,23.30
2018-04-09T18:35:22.209Z,23.20
2018-04-09T18:37:50.445Z,23.00
2018-04-09T18:40:17.915Z,22.70
2018-04-09T18:42:45.414Z,23.23
2018-04-09T18:45:12.915Z,22.63
2018-04-09T18:47:40.372Z,23.27
2018-04-09T18:50:07.840Z,23.40
2018-04-09T18:52:35.313Z,24.00
2018-04-09T18:55:03.544Z,24.00
2018-04-09T18:57:31.020Z,22.37
2018-04-09T18:59:58.523Z,23.27
2018-04-09T19:02:25.993Z,23.93
2018-04-09T19:04:53.481Z,22.43
2018-04-09T19:07:20.931Z,24.43
2018-04-09T19:09:48.418Z,22.43
2018-04-09T19:12:15.899Z,24.93
2018-04-09T19:14:43.359Z,22.57
2018-04-09T19:17:10.820Z,21.80
2018-04-09T19:19:38.327Z,22.40
2018-04-09T19:22:05.771Z,25.10
2018-04-09T19:24:33.235Z,26.00
2018-04-09T19:27:00.718Z,24.33
2018-04-09T19:29:28.182Z,24.00
2018-04-09T19:31:56.418Z,24.60
2018-04-09T19:34:23.900Z,24.10
2018-04-09T19:36:57.078Z,24.93
2018-04-09T19:39:30.360Z,23.00
2018-04-09T19:41:57.828Z,24.33
2018-04-09T19:44:25.344Z,25.80
2018-04-09T19:46:52.806Z,25.50
2018-04-09T19:49:20.263Z,24.13
2018-04-09T19:51:47.745Z,24.53
2018-04-09T19:54:15.222Z,23.67
2018-04-09T19:56:42.692Z,25.97
2018-04-09T19:59:10.983Z,24.37
2018-04-09T20:01:38.412Z,24.20
2018-04-09T20:04:05.871Z,24.00
2018-04-09T20:06:33.440Z,25.60
2018-04-09T20:09:01.676Z,25.30
2018-04-09T20:11:29.148Z,23.77
2018-04-09T20:13:57.237Z,25.53
2018-04-09T20:16:24.696Z,25.47
2018-04-09T20:18:52.196Z,26.90
2018-04-09T20:21:19.652Z,25.20
2018-04-09T20:23:47.133Z,27.73
2018-04-09T20:26:14.604Z,25.80
2018-04-09T20:28:42.096Z,23.80
2018-04-09T20:31:10.328Z,26.17
2018-04-09T20:33:37.816Z,25.70
2018-04-09T20:36:06.076Z,28.10
2018-04-09T20:38:33.540Z,23.60
2018-04-09T20:41:01.063Z,26.60
2018-04-09T20:43:28.567Z,24.90
2018-04-09T20:45:56.156Z,25.40
2018-04-09T20:48:23.628Z,23.57
2018-04-09T20:50:51.132Z,27.40
2018-04-09T20:53:18.585Z,25.00
2018-04-09T20:55:46.080Z,26.63
2018-04-09T20:58:14.309Z,24.67
2018-04-09T21:00:41.760Z,24.77
2018-04-09T21:03:09.240Z,24.17
2018-04-09T21:05:38.479Z,25.23
2018-04-09T21:08:05.986Z,26.37
2018-04-09T21:10:33.490Z,25.80
2018-04-09T21:13:00.950Z,24.80
2018-04-09T21:15:28.429Z,26.83
2018-04-09T21:17:55.913Z,24.90
2018-04-09T21:20:23.372Z,26.80
2018-04-09T21:22:50.848Z,27.80
2018-04-09T21:25:19.101Z,26.17
2018-04-09T21:27:46.565Z,25.97
2018-04-09T21:30:14.036Z,25.03
2018-04-09T21:32:42.257Z,27.30
2018-04-09T21:35:09.725Z,25.37
2018-04-09T21:37:37.200Z,25.10
2018-04-09T21:40:04.660Z,24.17
2018-04-09T21:42:32.125Z,23.97
2018-04-09T21:45:00.405Z,24.40
2018-04-09T21:47:27.950Z,24.27
2018-04-09T21:49:55.420Z,25.10
2018-04-09T21:52:22.972Z,25.67
2018-04-09T21:54:50.440Z,27.63
2018-04-09T21:57:18.677Z,25.70
2018-04-09T21:59:46.156Z,27.83
2018-04-09T22:02:13.614Z,27.90
2018-04-09T22:04:41.070Z,24.40
2018-04-09T22:07:08.540Z,24.80
2018-04-09T22:09:37.677Z,24.80
2018-04-09T22:12:05.129Z,25.13
2018-04-09T22:14:32.691Z,25.60
2018-04-09T22:17:00.135Z,25.83
2018-04-09T22:19:27.611Z,24.70
2018-04-09T22:21:55.078Z,25.60
2018-04-09T22:24:22.545Z,23.83
2018-04-09T22:26:50.016Z,26.17
2018-04-09T22:29:17.639Z,25.87
2018-04-09T22:31:45.137Z,24.73
2018-04-09T22:34:12.607Z,23.17
2018-04-09T22:36:40.136Z,23.27
2018-04-09T22:39:07.636Z,25.70
2018-04-09T22:41:35.051Z,24.13
2018-04-09T22:44:02.576Z,24.27
2018-04-09T22:46:30.024Z,25.97
2018-04-09T22:48:58.306Z,24.70
2018-04-09T22:51:25.775Z,26.93
2018-04-09T22:53:53.232Z,25.23
2018-04-09T22:56:20.700Z,22.87
2018-04-09T22:58:48.171Z,27.73
2018-04-09T23:01:15.628Z,26.40
2018-04-09T23:03:43.091Z,25.70
2018-04-09T23:06:10.564Z,24.73
2018-04-09T23:08:38.795Z,25.67
2018-04-09T23:11:06.252Z,27.00
2018-04-09T23:13:33.741Z,26.93
2018-04-09T23:16:01.412Z,28.50
2018-04-09T23:18:28.868Z,26.10
2018-04-09T23:20:56.345Z,27.97
2018-04-09T23:23:24.573Z,27.87
2018-04-09T23:25:52.036Z,28.00
2018-04-09T23:28:19.516Z,30.53
2018-04-09T23:30:46.991Z,28.17
2018-04-09T23:33:15.221Z,27.47
2018-04-09T23:35:42.700Z,28.13
2018-04-09T23:38:11.664Z,31.27
2018-04-09T23:40:39.127Z,29.00
2018-04-09T23:43:06.595Z,31.40
2018-04-09T23:45:34.113Z,29.23
2018-04-09T23:48:01.566Z,30.13
2018-04-09T23:50:29.072Z,30.67
2018-04-09T23:52:56.591Z,29.27
2018-04-09T23:55:24.047Z,32.03
2018-04-09T23:57:51.528Z,29.60
